Time;durP1;ratioP1;P1;durP2;ratioP2;P2;SDS_P1;SDS_P2;PMS_P1;PMS_P2;Temp;Humidity;BMP_temperature;BMP_pressure;BME280_temperature;BME280_humidity;BME280_pressure;Samples;Min_cycle;Max_cycle;Signal;HPM_P1;HPM_P2
2021/04/25 00:00:36;;;;;;;9.20;3.17;;;;;;;;;;5059919;28;20041;-55
2021/04/25 00:03:02;;;;;;;7.32;2.53;;;;;;;;;;5062252;28;20059;-57
2021/04/25 00:05:28;;;;;;;8.68;3.15;;;;;;;;;;5060219;28;20045;-54
2021/04/25 00:07:55;;;;;;;6.63;2.65;;;;;;;;;;5061279;28;20044;-52
2021/04/25 00:10:21;;;;;;;9.57;3.00;;;;;;;;;;5059425;28;20036;-54
2021/04/25 00:12:48;;;;;;;7.15;2.78;;;;;;;;;;5061638;28;20052;-55
2021/04/25 00:15:15;;;;;;;11.07;3.40;;;;;;;;;;5057756;28;20052;-55
2021/04/25 00:17:43;;;;;;;9.98;3.08;;;;;;;;;;5062496;28;20045;-52
2021/04/25 00:20:09;;;;;;;9.43;2.80;;;;;;;;;;5056909;28;20106;-56
2021/04/25 00:22:35;;;;;;;12.38;3.45;;;;;;;;;;5061570;28;20040;-57
2021/04/25 00:25:02;;;;;;;8.65;2.78;;;;;;;;;;5057678;28;20036;-54
2021/04/25 00:27:30;;;;;;;10.00;2.95;;;;;;;;;;5062002;28;20056;-54
2021/04/25 00:29:57;;;;;;;11.48;3.67;;;;;;;;;;5057175;28;20105;-55
2021/04/25 00:32:23;;;;;;;9.13;2.78;;;;;;;;;;5061734;28;20047;-55
2021/04/25 00:34:49;;;;;;;10.18;3.10;;;;;;;;;;5058787;28;20037;-57
2021/04/25 00:37:19;;;;;;;10.57;2.72;;;;;;;;;;5061178;28;20081;-53
2021/04/25 00:39:46;;;;;;;8.60;2.92;;;;;;;;;;5063239;28;20032;-55
2021/04/25 00:42:14;;;;;;;7.13;2.55;;;;;;;;;;5058829;28;20163;-52
2021/04/25 00:44:41;;;;;;;9.15;2.33;;;;;;;;;;5063461;28;20085;-52
2021/04/25 00:47:07;;;;;;;14.55;3.25;;;;;;;;;;5059306;28;20037;-53
2021/04/25 00:49:33;;;;;;;6.50;2.72;;;;;;;;;;5062380;28;20069;-52
2021/04/25 00:51:59;;;;;;;13.52;3.00;;;;;;;;;;5058363;28;20037;-56
2021/04/25 00:54:25;;;;;;;10.80;3.03;;;;;;;;;;5061870;28;20183;-56
2021/04/25 00:56:53;;;;;;;4.78;2.15;;;;;;;;;;5057308;28;20082;-51
2021/04/25 00:59:20;;;;;;;10.07;2.55;;;;;;;;;;5054136;28;20040;-51
2021/04/25 01:01:48;;;;;;;6.65;2.50;;;;;;;;;;5057424;28;20048;-52
2021/04/25 01:04:14;;;;;;;8.18;2.30;;;;;;;;;;5063231;28;20044;-53
2021/04/25 01:06:40;;;;;;;6.72;2.70;;;;;;;;;;5057146;28;20037;-53
2021/04/25 01:09:07;;;;;;;6.20;1.95;;;;;;;;;;5059785;28;20048;-51
2021/04/25 01:11:33;;;;;;;5.95;2.38;;;;;;;;;;5058966;28;20103;-51
2021/04/25 01:13:59;;;;;;;8.65;2.58;;;;;;;;;;5061599;28;20049;-54
2021/04/25 01:16:28;;;;;;;6.40;2.05;;;;;;;;;;5058262;28;20037;-52
2021/04/25 01:18:53;;;;;;;8.65;2.70;;;;;;;;;;5060874;28;20129;-50
2021/04/25 01:21:20;;;;;;;5.55;1.92;;;;;;;;;;5060132;28;20045;-53
2021/04/25 01:23:46;;;;;;;6.55;2.45;;;;;;;;;;5054800;28;20166;-54
2021/04/25 01:26:15;;;;;;;12.73;2.65;;;;;;;;;;5060565;28;20064;-57
2021/04/25 01:28:42;;;;;;;;;;;;;;;;;;5057474;28;20051;-56
2021/04/25 01:31:08;;;;;;;7.20;2.28;;;;;;;;;;5059718;28;19928;-55
2021/04/25 01:33:34;;;;;;;5.72;1.85;;;;;;;;;;5056579;28;20052;-57
2021/04/25 01:36:00;;;;;;;5.70;2.35;;;;;;;;;;5060873;28;20065;-56
2021/04/25 01:38:27;;;;;;;6.43;2.60;;;;;;;;;;5057185;28;20063;-55
2021/04/25 01:40:53;;;;;;;5.47;1.92;;;;;;;;;;5060738;28;20040;-55
2021/04/25 01:43:19;;;;;;;9.55;2.15;;;;;;;;;;5057495;28;20056;-57
2021/04/25 01:45:45;;;;;;;5.32;1.83;;;;;;;;;;5059896;28;20044;-57
2021/04/25 01:48:11;;;;;;;8.85;2.08;;;;;;;;;;5055567;28;20138;-56
2021/04/25 01:50:38;;;;;;;5.78;2.05;;;;;;;;;;5060390;28;20048;-57
2021/04/25 01:53:04;;;;;;;4.10;1.70;;;;;;;;;;5059032;28;20052;-55
2021/04/25 01:55:32;;;;;;;8.65;1.85;;;;;;;;;;5060727;28;20044;-56
2021/04/25 01:58:01;;;;;;;6.35;2.03;;;;;;;;;;5057132;28;20052;-51
2021/04/25 02:00:28;;;;;;;11.18;1.92;;;;;;;;;;5057280;28;20061;-54
2021/04/25 02:02:55;;;;;;;6.88;2.42;;;;;;;;;;5059171;28;20037;-57
2021/04/25 02:05:21;;;;;;;11.70;2.05;;;;;;;;;;5057687;28;20033;-55
2021/04/25 02:07:48;;;;;;;8.40;2.10;;;;;;;;;;5056990;28;20040;-57
2021/04/25 02:10:14;;;;;;;8.85;2.10;;;;;;;;;;5056108;28;20040;-57
2021/04/25 02:12:41;;;;;;;7.10;2.47;;;;;;;;;;5060070;28;20052;-53
2021/04/25 02:15:08;;;;;;;7.55;2.10;;;;;;;;;;5056376;28;20053;-55
2021/04/25 02:17:35;;;;;;;8.75;2.20;;;;;;;;;;5060656;28;20049;-55
2021/04/25 02:20:01;;;;;;;7.93;1.95;;;;;;;;;;5057565;28;20170;-56
2021/04/25 02:22:27;;;;;;;9.60;1.88;;;;;;;;;;5060386;28;20041;-54
2021/04/25 02:24:53;;;;;;;8.20;2.42;;;;;;;;;;5057768;28;20177;-54
2021/04/25 02:27:19;;;;;;;6.45;1.80;;;;;;;;;;5060989;28;20040;-54
2021/04/25 02:29:46;;;;;;;10.18;2.03;;;;;;;;;;5056392;28;20138;-52
2021/04/25 02:32:12;;;;;;;8.00;2.13;;;;;;;;;;5060408;28;20044;-55
2021/04/25 02:34:38;;;;;;;6.32;2.10;;;;;;;;;;5056445;28;20055;-52
2021/04/25 02:37:04;;;;;;;4.50;1.60;;;;;;;;;;5060762;28;20032;-52
2021/04/25 02:39:30;;;;;;;7.95;2.03;;;;;;;;;;5056943;28;20049;-53
2021/04/25 02:41:56;;;;;;;4.15;1.80;;;;;;;;;;5057915;28;20060;-50
2021/04/25 02:44:22;;;;;;;5.68;1.90;;;;;;;;;;5060279;28;20097;-54
2021/04/25 02:46:52;;;;;;;6.22;1.67;;;;;;;;;;5057386;28;20044;-51
2021/04/25 02:49:18;;;;;;;9.98;2.08;;;;;;;;;;5059738;28;20049;-54
2021/04/25 02:51:44;;;;;;;7.57;1.73;;;;;;;;;;5055494;28;20091;-54
2021/04/25 02:54:10;;;;;;;5.53;1.45;;;;;;;;;;5060887;28;20036;-55
2021/04/25 02:56:36;;;;;;;7.13;2.20;;;;;;;;;;5055187;28;20028;-55
2021/04/25 02:59:03;;;;;;;5.47;1.83;;;;;;;;;;5059366;28;20077;-56
2021/04/25 03:04:00;;;;;;;10.48;1.55;;;;;;;;;;5010758;28;20048;-54
2021/04/25 03:06:26;;;;;;;4.57;1.80;;;;;;;;;;4992509;28;20077;-49
2021/04/25 03:08:54;;;;;;;7.18;1.83;;;;;;;;;;5004546;28;20034;-46
2021/04/25 03:11:20;;;;;;;4.50;1.60;;;;;;;;;;5007821;28;20046;-49
2021/04/25 03:13:46;;;;;;;5.72;1.90;;;;;;;;;;4994831;28;20164;-49
2021/04/25 03:16:12;;;;;;;6.90;2.00;;;;;;;;;;5005773;28;20057;-49
2021/04/25 03:18:38;;;;;;;7.53;1.90;;;;;;;;;;4988141;28;20058;-52
2021/04/25 03:21:05;;;;;;;7.45;2.28;;;;;;;;;;4996183;28;20072;-53
2021/04/25 03:23:30;;;;;;;4.07;1.65;;;;;;;;;;4996808;28;20066;-52
2021/04/25 03:25:56;;;;;;;5.85;1.63;;;;;;;;;;5006886;28;20487;-51
2021/04/25 03:28:23;;;;;;;7.03;1.75;;;;;;;;;;5002439;28;20049;-57
2021/04/25 03:30:49;;;;;;;4.32;1.80;;;;;;;;;;5001544;28;20053;-51
2021/04/25 03:33:15;;;;;;;5.72;1.83;;;;;;;;;;5023759;28;20045;-50
2021/04/25 03:35:41;;;;;;;5.57;1.88;;;;;;;;;;5002667;28;20101;-52
2021/04/25 03:38:09;;;;;;;4.65;1.45;;;;;;;;;;5020693;28;20050;-51
2021/04/25 03:40:35;;;;;;;12.15;1.75;;;;;;;;;;5013146;28;20042;-53
2021/04/25 03:43:01;;;;;;;8.93;1.60;;;;;;;;;;5003645;28;20527;-56
2021/04/25 03:45:27;;;;;;;6.43;1.80;;;;;;;;;;4999619;28;20030;-52
2021/04/25 03:47:55;;;;;;;8.52;1.73;;;;;;;;;;5001578;28;20033;-52
2021/04/25 03:50:23;;;;;;;4.90;1.35;;;;;;;;;;5007098;28;20049;-52
2021/04/25 03:52:49;;;;;;;5.13;1.42;;;;;;;;;;5000901;28;20090;-52
2021/04/25 03:55:17;;;;;;;5.95;1.70;;;;;;;;;;5004176;28;20049;-54
2021/04/25 03:57:43;;;;;;;5.22;1.60;;;;;;;;;;5000004;28;20098;-54
2021/04/25 04:00:11;;;;;;;6.35;2.10;;;;;;;;;;5018322;28;20051;-50
2021/04/25 04:02:37;;;;;;;7.18;1.92;;;;;;;;;;5005462;28;20049;-52
2021/04/25 04:05:03;;;;;;;3.63;1.40;;;;;;;;;;5044363;28;20050;-52
2021/04/25 04:07:33;;;;;;;5.55;1.50;;;;;;;;;;5046106;28;20045;-52
2021/04/25 04:09:59;;;;;;;5.32;1.52;;;;;;;;;;5059051;28;20048;-50
2021/04/25 04:12:25;;;;;;;4.28;1.50;;;;;;;;;;5044391;28;20111;-51
2021/04/25 04:14:51;;;;;;;7.97;1.92;;;;;;;;;;5041792;28;20458;-52
2021/04/25 04:17:18;;;;;;;7.50;1.90;;;;;;;;;;5045818;28;20037;-55
2021/04/25 04:19:44;;;;;;;4.72;1.70;;;;;;;;;;5041865;28;20029;-51
2021/04/25 04:22:10;;;;;;;6.97;2.10;;;;;;;;;;5045746;28;20052;-48
2021/04/25 04:24:36;;;;;;;4.85;1.50;;;;;;;;;;5038561;28;20228;-53
2021/04/25 04:27:05;;;;;;;7.18;1.42;;;;;;;;;;5029495;28;20037;-48
2021/04/25 04:29:33;;;;;;;4.85;1.63;;;;;;;;;;5043512;28;20741;-53
2021/04/25 04:31:59;;;;;;;8.38;1.52;;;;;;;;;;5044313;28;20045;-51
2021/04/25 04:34:25;;;;;;;7.95;1.63;;;;;;;;;;5040603;28;20056;-55
2021/04/25 04:36:53;;;;;;;7.70;1.90;;;;;;;;;;5040010;28;20040;-53
2021/04/25 04:39:19;;;;;;;4.22;1.63;;;;;;;;;;5025597;28;20491;-53
2021/04/25 04:41:45;;;;;;;6.80;1.60;;;;;;;;;;5037344;28;20046;-52
2021/04/25 04:44:11;;;;;;;8.20;1.70;;;;;;;;;;5041894;28;20059;-51
2021/04/25 04:46:38;;;;;;;6.68;1.55;;;;;;;;;;5038530;28;20161;-52
2021/04/25 04:49:06;;;;;;;5.78;1.48;;;;;;;;;;5043092;28;20049;-54
2021/04/25 04:51:33;;;;;;;10.63;1.48;;;;;;;;;;5037645;28;20037;-53
2021/04/25 04:53:59;;;;;;;5.82;1.48;;;;;;;;;;5041052;28;20048;-54
2021/04/25 04:56:25;;;;;;;6.88;1.42;;;;;;;;;;5040641;28;20044;-49
2021/04/25 04:58:51;;;;;;;5.25;1.50;;;;;;;;;;5044696;28;20037;-50
2021/04/25 05:01:17;;;;;;;8.07;1.63;;;;;;;;;;5037924;28;20045;-54
2021/04/25 05:03:44;;;;;;;5.18;1.10;;;;;;;;;;5039437;28;20052;-53
2021/04/25 05:06:10;;;;;;;5.68;1.17;;;;;;;;;;5041485;28;20055;-51
2021/04/25 05:08:36;;;;;;;3.40;1.20;;;;;;;;;;5044707;28;20037;-50
2021/04/25 05:11:02;;;;;;;4.95;1.13;;;;;;;;;;5057899;28;20048;-51
2021/04/25 05:13:28;;;;;;;7.00;1.67;;;;;;;;;;5044777;28;20055;-52
2021/04/25 05:15:54;;;;;;;6.22;1.08;;;;;;;;;;5043356;28;20049;-51
2021/04/25 05:18:22;;;;;;;5.63;1.20;;;;;;;;;;5059556;28;20051;-54
2021/04/25 05:20:49;;;;;;;3.47;1.30;;;;;;;;;;5045020;28;20053;-56
2021/04/25 05:23:15;;;;;;;3.22;1.13;;;;;;;;;;5039190;28;20048;-53
2021/04/25 05:25:41;;;;;;;7.10;1.10;;;;;;;;;;5041191;28;20037;-53
2021/04/25 05:28:07;;;;;;;3.35;1.00;;;;;;;;;;5041349;28;20052;-50
2021/04/25 05:30:33;;;;;;;13.95;1.30;;;;;;;;;;5044354;28;20088;-52
2021/04/25 05:32:59;;;;;;;7.93;1.48;;;;;;;;;;5037808;28;20049;-52
2021/04/25 05:35:25;;;;;;;9.30;1.27;;;;;;;;;;5039883;28;20067;-55
2021/04/25 05:37:52;;;;;;;5.22;1.30;;;;;;;;;;5037879;28;20095;-55
2021/04/25 05:40:18;;;;;;;5.28;1.17;;;;;;;;;;5024664;28;20143;-51
2021/04/25 05:42:44;;;;;;;4.07;1.45;;;;;;;;;;5044377;28;20462;-51
2021/04/25 05:45:20;;;;;;;8.93;1.33;;;;;;;;;;5044052;28;20041;-53
2021/04/25 05:47:49;;;;;;;8.25;1.45;;;;;;;;;;5057840;28;20063;-55
2021/04/25 05:50:15;;;;;;;5.15;0.88;;;;;;;;;;5044326;28;20051;-52
2021/04/25 05:52:41;;;;;;;8.18;1.42;;;;;;;;;;5042008;28;20049;-56
2021/04/25 05:55:09;;;;;;;8.55;1.38;;;;;;;;;;5044518;28;20048;-50
2021/04/25 05:57:35;;;;;;;4.67;1.30;;;;;;;;;;5043290;28;20037;-55
2021/04/25 06:00:01;;;;;;;6.03;1.15;;;;;;;;;;5035703;28;20282;-51
2021/04/25 06:02:27;;;;;;;4.18;1.00;;;;;;;;;;5042023;28;20130;-54
2021/04/25 06:04:53;;;;;;;6.18;1.42;;;;;;;;;;5035672;28;20045;-49
2021/04/25 06:07:19;;;;;;;8.90;1.55;;;;;;;;;;5041756;28;20099;-53
2021/04/25 06:09:45;;;;;;;2.88;1.20;;;;;;;;;;5037459;28;20041;-55
2021/04/25 06:12:12;;;;;;;4.78;1.58;;;;;;;;;;5039519;28;20049;-55
2021/04/25 06:14:38;;;;;;;6.18;1.55;;;;;;;;;;5040001;28;20036;-55
2021/04/25 06:17:04;;;;;;;6.00;1.45;;;;;;;;;;5043614;28;20048;-54
2021/04/25 06:19:30;;;;;;;10.23;1.38;;;;;;;;;;5036829;28;20037;-53
2021/04/25 06:21:56;;;;;;;2.33;1.10;;;;;;;;;;5023730;28;20044;-53
2021/04/25 06:24:23;;;;;;;6.55;1.58;;;;;;;;;;5041634;28;20586;-51
2021/04/25 06:26:49;;;;;;;6.75;1.30;;;;;;;;;;5042282;28;20036;-54
2021/04/25 06:29:16;;;;;;;7.80;1.20;;;;;;;;;;5038665;28;20075;-53
2021/04/25 06:31:42;;;;;;;4.85;1.27;;;;;;;;;;5042241;28;20040;-56
2021/04/25 06:34:08;;;;;;;4.68;1.17;;;;;;;;;;5038705;28;20108;-54
2021/04/25 06:36:38;;;;;;;6.82;1.10;;;;;;;;;;5061425;28;20124;-55
2021/04/25 06:39:11;;;;;;;5.53;1.20;;;;;;;;;;5046340;28;20045;-52
2021/04/25 06:41:37;;;;;;;6.57;1.17;;;;;;;;;;5038229;28;20052;-56
2021/04/25 06:44:03;;;;;;;6.10;1.08;;;;;;;;;;5041871;28;20041;-55
2021/04/25 06:46:30;;;;;;;6.03;1.02;;;;;;;;;;5040220;28;20052;-52
2021/04/25 06:48:56;;;;;;;8.88;1.27;;;;;;;;;;5026830;28;20073;-55
2021/04/25 06:51:22;;;;;;;7.40;1.13;;;;;;;;;;5037967;28;20046;-54
2021/04/25 06:53:48;;;;;;;8.27;1.33;;;;;;;;;;5065062;28;20234;-56
2021/04/25 06:56:14;;;;;;;6.57;1.20;;;;;;;;;;5059850;28;20122;-56
2021/04/25 06:58:41;;;;;;;7.85;1.27;;;;;;;;;;5065122;28;20154;-49
2021/04/25 07:01:07;;;;;;;5.75;1.15;;;;;;;;;;5060546;28;20055;-52
2021/04/25 07:03:34;;;;;;;14.55;1.85;;;;;;;;;;5045945;28;20055;-52
2021/04/25 07:06:01;;;;;;;5.50;1.05;;;;;;;;;;5060759;28;20190;-52
2021/04/25 07:08:27;;;;;;;7.00;1.30;;;;;;;;;;5045955;28;20037;-51
2021/04/25 07:10:53;;;;;;;3.50;1.10;;;;;;;;;;5043052;28;20067;-53
2021/04/25 07:13:19;;;;;;;7.25;1.77;;;;;;;;;;5047174;28;20040;-53
2021/04/25 07:15:45;;;;;;;5.13;0.90;;;;;;;;;;5043346;28;20052;-54
2021/04/25 07:18:12;;;;;;;5.35;0.88;;;;;;;;;;5045305;28;20056;-55
2021/04/25 07:20:39;;;;;;;5.72;1.30;;;;;;;;;;5046466;28;20037;-49
2021/04/25 07:23:05;;;;;;;3.42;1.08;;;;;;;;;;5042158;28;20052;-49
2021/04/25 07:25:31;;;;;;;6.82;1.08;;;;;;;;;;5046387;28;20088;-53
2021/04/25 07:27:58;;;;;;;5.13;1.00;;;;;;;;;;5039194;28;20033;-56
2021/04/25 07:30:24;;;;;;;3.67;1.00;;;;;;;;;;5045137;28;20044;-52
2021/04/25 07:32:50;;;;;;;4.70;1.20;;;;;;;;;;5041950;28;20041;-55
2021/04/25 07:35:17;;;;;;;7.78;1.05;;;;;;;;;;5042210;28;20045;-55
2021/04/25 07:37:44;;;;;;;6.93;0.95;;;;;;;;;;5042076;28;20041;-54
2021/04/25 07:40:11;;;;;;;7.45;0.98;;;;;;;;;;5061387;28;20078;-53
2021/04/25 07:42:38;;;;;;;9.93;0.93;;;;;;;;;;5039236;28;20037;-57
2021/04/25 07:45:04;;;;;;;2.30;0.82;;;;;;;;;;5043917;28;20044;-55
2021/04/25 07:47:31;;;;;;;4.93;1.00;;;;;;;;;;5038712;28;20037;-57
2021/04/25 07:49:57;;;;;;;5.38;1.13;;;;;;;;;;5059639;28;20056;-55
2021/04/25 07:52:23;;;;;;;2.60;1.02;;;;;;;;;;5040420;28;20044;-55
2021/04/25 07:54:49;;;;;;;9.85;1.00;;;;;;;;;;5044352;28;20052;-54
2021/04/25 07:57:16;;;;;;;3.65;0.85;;;;;;;;;;5043115;28;20053;-53
2021/04/25 07:59:42;;;;;;;11.48;1.23;;;;;;;;;;5038425;28;20053;-56
2021/04/25 08:02:07;;;;;;;4.70;1.05;;;;;;;;;;5050733;28;20047;-55
2021/04/25 08:04:34;;;;;;;4.28;0.88;;;;;;;;;;5032971;28;20045;-53
2021/04/25 08:07:00;;;;;;;7.10;1.02;;;;;;;;;;5041504;28;20076;-55
2021/04/25 08:09:26;;;;;;;3.75;1.23;;;;;;;;;;5036671;28;20037;-57
2021/04/25 08:11:54;;;;;;;9.52;1.15;;;;;;;;;;5042549;28;20078;-55
2021/04/25 08:14:20;;;;;;;3.25;0.80;;;;;;;;;;5040277;28;20045;-54
2021/04/25 08:16:47;;;;;;;3.65;0.90;;;;;;;;;;5042980;28;20053;-55
2021/04/25 08:19:12;;;;;;;5.20;0.88;;;;;;;;;;5037781;28;20052;-55
2021/04/25 08:21:38;;;;;;;7.28;1.52;;;;;;;;;;5042257;28;20044;-55
2021/04/25 08:24:05;;;;;;;4.63;0.88;;;;;;;;;;5036441;28;20041;-56
2021/04/25 08:26:31;;;;;;;5.70;1.02;;;;;;;;;;5024982;28;20095;-54
2021/04/25 08:29:00;;;;;;;11.00;1.05;;;;;;;;;;5022417;28;20997;-52
2021/04/25 08:31:27;;;;;;;6.60;0.90;;;;;;;;;;5042296;28;20033;-51
2021/04/25 08:33:53;;;;;;;4.65;0.98;;;;;;;;;;5039394;28;20052;-52
2021/04/25 08:36:19;;;;;;;3.28;0.80;;;;;;;;;;5042011;28;20069;-54
2021/04/25 08:38:47;;;;;;;7.95;1.05;;;;;;;;;;5043385;28;20065;-50
2021/04/25 08:41:15;;;;;;;4.73;0.77;;;;;;;;;;5023680;28;20037;-55
2021/04/25 08:43:41;;;;;;;5.90;0.88;;;;;;;;;;5024558;28;20048;-48
2021/04/25 08:46:08;;;;;;;5.00;1.10;;;;;;;;;;5031554;28;20056;-52
2021/04/25 08:48:35;;;;;;;4.47;0.77;;;;;;;;;;5024767;28;20111;-51
2021/04/25 08:51:01;;;;;;;3.95;0.70;;;;;;;;;;5024542;28;20025;-52
2021/04/25 08:53:27;;;;;;;5.00;0.90;;;;;;;;;;5026942;28;20044;-56
2021/04/25 08:55:53;;;;;;;4.25;0.90;;;;;;;;;;5038973;28;20041;-54
2021/04/25 08:58:21;;;;;;;5.25;0.88;;;;;;;;;;5040942;28;20057;-52
2021/04/25 09:00:47;;;;;;;2.83;0.80;;;;;;;;;;5036699;28;20052;-54
2021/04/25 09:03:14;;;;;;;1.55;0.68;;;;;;;;;;5040393;28;20045;-52
2021/04/25 09:05:40;;;;;;;4.97;1.13;;;;;;;;;;5038102;28;20043;-52
2021/04/25 09:08:07;;;;;;;5.95;1.10;;;;;;;;;;5044685;28;20049;-50
2021/04/25 09:10:34;;;;;;;4.15;0.95;;;;;;;;;;5037674;28;20064;-54
2021/04/25 09:13:01;;;;;;;7.15;0.90;;;;;;;;;;5025115;28;20053;-54
2021/04/25 09:15:29;;;;;;;7.50;0.90;;;;;;;;;;5037663;28;20089;-57
2021/04/25 09:17:57;;;;;;;6.40;1.15;;;;;;;;;;5034753;28;20048;-52
2021/04/25 09:20:35;;;;;;;7.28;1.13;;;;;;;;;;5022882;28;20121;-54
2021/04/25 09:23:01;;;;;;;6.13;0.90;;;;;;;;;;5021070;28;20045;-57
2021/04/25 09:25:27;;;;;;;2.83;0.90;;;;;;;;;;5023457;28;20033;-58
2021/04/25 09:27:53;;;;;;;1.80;0.70;;;;;;;;;;5024972;28;20056;-53
2021/04/25 09:30:20;;;;;;;5.55;0.85;;;;;;;;;;5024858;28;20045;-56
2021/04/25 09:32:46;;;;;;;4.18;1.08;;;;;;;;;;5019858;28;20135;-57
2021/04/25 09:35:14;;;;;;;7.82;1.10;;;;;;;;;;5021941;28;20415;-52
2021/04/25 09:37:43;;;;;;;4.35;1.02;;;;;;;;;;5012335;28;20069;-57
2021/04/25 09:40:10;;;;;;;6.40;0.82;;;;;;;;;;5020729;28;20095;-55
2021/04/25 09:42:55;;;;;;;2.03;0.80;;;;;;;;;;5017971;28;20065;-55
2021/04/25 09:45:25;;;;;;;1.23;0.70;;;;;;;;;;5023381;28;20330;-55
2021/04/25 09:47:51;;;;;;;3.28;0.80;;;;;;;;;;5039859;28;20038;-57
2021/04/25 09:50:18;;;;;;;7.95;1.33;;;;;;;;;;5023479;28;20033;-56
2021/04/25 09:52:48;;;;;;;2.45;0.73;;;;;;;;;;5017462;28;20045;-53
2021/04/25 09:55:22;;;;;;;3.95;0.80;;;;;;;;;;5029945;28;20048;-57
2021/04/25 09:57:51;;;;;;;3.40;1.00;;;;;;;;;;5039032;28;20056;-52
2021/04/25 10:00:18;;;;;;;4.93;1.50;;;;;;;;;;5039453;28;20041;-54
2021/04/25 10:02:57;;;;;;;6.70;1.60;;;;;;;;;;5039564;28;20037;-55
2021/04/25 10:05:23;;;;;;;7.03;0.98;;;;;;;;;;5042607;28;20048;-57
2021/04/25 10:07:51;;;;;;;8.00;1.00;;;;;;;;;;5058974;28;20045;-54
2021/04/25 10:10:19;;;;;;;6.63;0.85;;;;;;;;;;5046569;28;20037;-52
2021/04/25 10:12:45;;;;;;;0.75;0.57;;;;;;;;;;5044845;28;20048;-58
2021/04/25 10:15:11;;;;;;;3.35;0.80;;;;;;;;;;5026994;28;20041;-51
2021/04/25 10:17:42;;;;;;;5.38;1.10;;;;;;;;;;5044715;28;20033;-54
2021/04/25 10:20:08;;;;;;;5.60;0.80;;;;;;;;;;5062612;28;20044;-51
2021/04/25 10:22:35;;;;;;;7.40;0.98;;;;;;;;;;5047928;28;20043;-57
2021/04/25 10:25:02;;;;;;;4.72;0.90;;;;;;;;;;5042717;28;20060;-56
2021/04/25 10:27:29;;;;;;;6.55;1.23;;;;;;;;;;5063517;28;20048;-59
2021/04/25 10:29:56;;;;;;;11.02;1.20;;;;;;;;;;5038557;28;20041;-55
2021/04/25 10:32:22;;;;;;;6.22;1.00;;;;;;;;;;5044544;28;20056;-57
2021/04/25 10:34:51;;;;;;;10.02;1.45;;;;;;;;;;5039131;28;20045;-56
2021/04/25 10:37:18;;;;;;;5.13;1.02;;;;;;;;;;5043638;28;20094;-58
2021/04/25 10:39:46;;;;;;;4.32;0.98;;;;;;;;;;5039607;28;20080;-57
2021/04/25 10:42:12;;;;;;;;;;;;;;;;;;5042125;28;20041;-53
2021/04/25 10:44:53;;;;;;;5.50;1.10;;;;;;;;;;5041354;28;19936;-57
2021/04/25 10:47:20;;;;;;;1.42;0.73;;;;;;;;;;5044523;28;20048;-57
2021/04/25 10:49:46;;;;;;;4.22;1.00;;;;;;;;;;5057131;28;20048;-57
2021/04/25 10:52:22;;;;;;;6.55;1.23;;;;;;;;;;5064058;28;20037;-55
2021/04/25 10:55:07;;;;;;;3.83;0.93;;;;;;;;;;5051773;28;20029;-57
2021/04/25 10:57:33;;;;;;;6.57;1.35;;;;;;;;;;5043186;28;20053;-60
2021/04/25 11:00:28;;;;;;;4.03;1.13;;;;;;;;;;5040768;28;20055;-57
2021/04/25 11:02:55;;;;;;;7.65;1.05;;;;;;;;;;5043732;28;20047;-57
2021/04/25 11:05:41;;;;;;;8.35;1.30;;;;;;;;;;5042454;28;20051;-56
2021/04/25 11:08:27;;;;;;;4.18;0.90;;;;;;;;;;5045398;28;20037;-53
2021/04/25 11:10:54;;;;;;;4.05;1.20;;;;;;;;;;5061142;28;20114;-58
2021/04/25 11:13:47;;;;;;;8.43;1.20;;;;;;;;;;5045151;28;20045;-58
2021/04/25 11:16:26;;;;;;;15.75;1.33;;;;;;;;;;5026353;28;20117;-56
2021/04/25 11:19:00;;;;;;;9.63;1.38;;;;;;;;;;5041967;28;20122;-57
2021/04/25 11:21:49;;;;;;;6.88;1.10;;;;;;;;;;5039098;28;20037;-57
2021/04/25 11:24:31;;;;;;;5.35;1.17;;;;;;;;;;5041517;28;20164;-54
2021/04/25 11:26:59;;;;;;;4.00;0.77;;;;;;;;;;5039601;28;20044;-54
2021/04/25 11:29:44;;;;;;;7.43;1.00;;;;;;;;;;5027180;28;20053;-56
2021/04/25 11:32:23;;;;;;;3.83;1.00;;;;;;;;;;5029851;28;20036;-58
2021/04/25 11:34:48;;;;;;;;;;;;;;;;;;5042247;28;20040;-54
2021/04/25 11:37:24;;;;;;;0.32;0.30;;;;;;;;;;5042212;28;19927;-58
2021/04/25 11:39:52;;;;;;;7.13;0.98;;;;;;;;;;5064325;28;20052;-56
2021/04/25 11:42:23;;;;;;;7.05;1.10;;;;;;;;;;5060731;28;20040;-57
2021/04/25 11:44:49;;;;;;;4.82;0.75;;;;;;;;;;5064677;28;20051;-56
2021/04/25 11:47:18;;;;;;;5.32;1.20;;;;;;;;;;5041300;28;20033;-56
2021/04/25 11:49:45;;;;;;;;;;;;;;;;;;5045324;28;20037;-57
2021/04/25 11:52:12;;;;;;;5.60;1.02;;;;;;;;;;5043264;28;19917;-57
2021/04/25 11:54:40;;;;;;;6.80;1.15;;;;;;;;;;5042613;28;20041;-57
2021/04/25 11:57:11;;;;;;;4.65;0.70;;;;;;;;;;5042832;28;20066;-55
2021/04/25 11:59:37;;;;;;;13.93;1.00;;;;;;;;;;5045075;28;20041;-58
2021/04/25 12:02:07;;;;;;;5.15;1.13;;;;;;;;;;5060051;28;20032;-58
2021/04/25 12:04:46;;;;;;;4.85;1.08;;;;;;;;;;5021054;28;20175;-56
2021/04/25 12:07:29;;;;;;;13.07;1.73;;;;;;;;;;5020068;28;20196;-58
2021/04/25 12:09:56;;;;;;;5.95;1.10;;;;;;;;;;5021137;28;20026;-58
2021/04/25 12:12:22;;;;;;;6.13;1.00;;;;;;;;;;5037030;28;20033;-57
2021/04/25 12:14:58;;;;;;;3.08;0.88;;;;;;;;;;5055959;28;20072;-58
2021/04/25 12:17:25;;;;;;;8.90;1.20;;;;;;;;;;5038760;28;20124;-55
2021/04/25 12:19:51;;;;;;;2.55;0.95;;;;;;;;;;5037634;28;20033;-54
2021/04/25 12:22:17;;;;;;;3.83;1.20;;;;;;;;;;5040162;28;20146;-53
2021/04/25 12:24:43;;;;;;;6.90;1.15;;;;;;;;;;5037166;28;20041;-55
2021/04/25 12:27:11;;;;;;;3.08;0.80;;;;;;;;;;5041998;28;20049;-56
2021/04/25 12:29:38;;;;;;;7.43;1.10;;;;;;;;;;5036770;28;20041;-59
2021/04/25 12:32:04;;;;;;;8.73;1.40;;;;;;;;;;5040643;28;20057;-58
2021/04/25 12:34:36;;;;;;;4.35;1.08;;;;;;;;;;5027936;28;20188;-55
2021/04/25 12:37:02;;;;;;;4.05;1.08;;;;;;;;;;5024916;28;20034;-56
2021/04/25 12:39:43;;;;;;;2.25;0.90;;;;;;;;;;5021951;28;20052;-55
2021/04/25 12:42:22;;;;;;;3.88;1.20;;;;;;;;;;5054133;28;20029;-55
2021/04/25 12:44:48;;;;;;;5.47;1.35;;;;;;;;;;5036788;28;20045;-58
2021/04/25 12:47:15;;;;;;;6.47;0.93;;;;;;;;;;5044339;28;20071;-56
2021/04/25 12:49:42;;;;;;;8.98;1.15;;;;;;;;;;5047252;28;20041;-58
2021/04/25 12:52:08;;;;;;;6.32;1.33;;;;;;;;;;5025103;28;20042;-55
2021/04/25 12:54:38;;;;;;;3.45;1.02;;;;;;;;;;5026661;28;20045;-54
2021/04/25 12:57:04;;;;;;;8.02;1.20;;;;;;;;;;5024026;28;20041;-57
2021/04/25 12:59:33;;;;;;;7.90;0.93;;;;;;;;;;5021545;28;20124;-55
2021/04/25 13:02:06;;;;;;;7.95;1.17;;;;;;;;;;5041341;28;20405;-57
2021/04/25 13:04:34;;;;;;;3.70;1.00;;;;;;;;;;5036863;28;20043;-56
2021/04/25 13:07:19;;;;;;;5.70;1.05;;;;;;;;;;5041206;28;20033;-58
2021/04/25 13:09:46;;;;;;;8.40;1.25;;;;;;;;;;5037421;28;20041;-59
2021/04/25 13:12:19;;;;;;;1.77;0.70;;;;;;;;;;5041248;28;20052;-59
2021/04/25 13:14:59;;;;;;;10.00;1.50;;;;;;;;;;5041171;28;20041;-53
2021/04/25 13:17:26;;;;;;;7.03;1.27;;;;;;;;;;5021727;28;20094;-49
2021/04/25 13:19:53;;;;;;;5.10;1.10;;;;;;;;;;5022834;28;20042;-58
2021/04/25 13:22:19;;;;;;;5.47;1.20;;;;;;;;;;5036647;28;20025;-59
2021/04/25 13:24:45;;;;;;;5.22;1.17;;;;;;;;;;5022642;28;20143;-58
2021/04/25 13:27:14;;;;;;;9.25;1.42;;;;;;;;;;5033774;28;20048;-54
2021/04/25 13:29:40;;;;;;;6.05;1.17;;;;;;;;;;5040328;28;20068;-54
2021/04/25 13:32:07;;;;;;;6.43;1.45;;;;;;;;;;5037797;28;20037;-57
2021/04/25 13:34:33;;;;;;;6.47;1.17;;;;;;;;;;5031184;28;20041;-58
2021/04/25 13:36:59;;;;;;;8.93;1.65;;;;;;;;;;5024690;28;20083;-53
2021/04/25 13:39:28;;;;;;;9.43;1.08;;;;;;;;;;5040149;28;20041;-56
2021/04/25 13:41:54;;;;;;;2.58;0.98;;;;;;;;;;5035392;28;20045;-57
2021/04/25 13:44:21;;;;;;;11.32;1.25;;;;;;;;;;5041259;28;20041;-57
2021/04/25 13:46:47;;;;;;;8.73;1.20;;;;;;;;;;5037466;28;20037;-59
2021/04/25 13:49:14;;;;;;;5.93;1.17;;;;;;;;;;5033982;28;20056;-56
2021/04/25 13:51:40;;;;;;;5.63;1.20;;;;;;;;;;5036034;28;20064;-58
2021/04/25 13:54:07;;;;;;;4.57;0.98;;;;;;;;;;5042990;28;20037;-59
2021/04/25 13:56:32;;;;;;;7.40;1.65;;;;;;;;;;5019121;28;20057;-57
2021/04/25 13:58:59;;;;;;;11.23;1.42;;;;;;;;;;5039437;28;20033;-58
2021/04/25 14:01:25;;;;;;;11.13;1.70;;;;;;;;;;5039058;28;20037;-55
2021/04/25 14:03:51;;;;;;;6.28;1.20;;;;;;;;;;5049843;28;20033;-59
2021/04/25 14:06:19;;;;;;;8.13;1.15;;;;;;;;;;5042424;28;20051;-58
2021/04/25 14:08:45;;;;;;;8.23;1.00;;;;;;;;;;5040127;28;20127;-59
2021/04/25 14:11:12;;;;;;;4.10;1.10;;;;;;;;;;5040531;28;20048;-58
2021/04/25 14:13:39;;;;;;;6.53;1.27;;;;;;;;;;5040019;28;20852;-56
2021/04/25 14:16:05;;;;;;;7.10;1.23;;;;;;;;;;5042513;28;20033;-57
2021/04/25 14:18:33;;;;;;;2.95;1.00;;;;;;;;;;5065496;28;20056;-57
2021/04/25 14:21:01;;;;;;;6.18;1.00;;;;;;;;;;5043324;28;20045;-59
2021/04/25 14:23:28;;;;;;;4.05;1.10;;;;;;;;;;5036054;28;20037;-56
2021/04/25 14:25:53;;;;;;;5.50;1.17;;;;;;;;;;5024159;28;20126;-59
2021/04/25 14:28:20;;;;;;;8.70;1.45;;;;;;;;;;5025703;28;20049;-57
2021/04/25 14:30:47;;;;;;;3.13;1.00;;;;;;;;;;5059385;28;20040;-59
2021/04/25 14:33:13;;;;;;;2.03;1.00;;;;;;;;;;5040137;28;20025;-60
2021/04/25 14:35:39;;;;;;;5.45;1.25;;;;;;;;;;5061708;28;20122;-57
2021/04/25 14:38:06;;;;;;;6.75;1.58;;;;;;;;;;5042587;28;20147;-57
2021/04/25 14:40:34;;;;;;;8.30;1.27;;;;;;;;;;5059063;28;20091;-59
2021/04/25 14:43:04;;;;;;;7.10;1.30;;;;;;;;;;5043881;28;20044;-59
2021/04/25 14:45:31;;;;;;;7.85;0.93;;;;;;;;;;5039208;28;20045;-59
2021/04/25 14:47:58;;;;;;;10.18;1.35;;;;;;;;;;5043972;28;20173;-59